Time,TemperatureF,DewpointF,PressureIn,WindDirection,WindDirectionDegrees,WindSpeedMPH,WindSpeedGustMPH,Humidity,HourlyPrecipIn,Conditions,Clouds,dailyrainin,SolarRadiationWatts/m^2,SoftwareType,DateUTC
2013-02-24 00:02:00,19.9,16.7,29.96,SW,229,1.0,5.0,87,0.00,,---,0.00,0.00,VWS V14.01,2013-02-24 06:02:00,
2013-02-24 00:07:00,19.6,16.4,29.96,SW,230,2.0,5.0,87,0.00,,---,0.00,0.00,VWS V14.01,2013-02-24 06:07:00,
2013-02-24 00:12:00,19.4,16.2,29.96,SW,230,3.0,4.0,87,0.00,,---,0.00,0.00,VWS V14.01,2013-02-24 06:12:00,
2013-02-24 00:17:00,19.1,15.9,29.97,SW,230,0.0,4.0,87,0.00,,---,0.00,0.00,VWS V14.01,2013-02-24 06:17:00,
2013-02-24 00:22:00,18.9,15.9,29.97,SW,230,0.0,3.0,88,0.00,,---,0.00,0.00,VWS V14.01,2013-02-24 06:22:00,
2013-02-24 00:27:00,18.7,15.7,29.97,SW,230,0.0,2.0,88,0.00,,---,0.00,0.00,VWS V14.01,2013-02-24 06:27:00,
2013-02-24 00:32:00,18.5,15.6,29.97,SW,230,0.0,2.0,88,0.00,,---,0.00,0.00,VWS V14.01,2013-02-24 06:32:00,
2013-02-24 00:38:00,18.4,15.4,29.97,SW,230,0.0,0.0,88,0.00,,---,0.00,0.00,VWS V14.01,2013-02-24 06:38:00,
2013-02-24 00:43:00,18.3,15.4,29.97,SW,230,0.0,0.0,88,0.00,,---,0.00,0.00,VWS V14.01,2013-02-24 06:43:00,
2013-02-24 00:48:00,18.3,15.4,29.97,SW,230,0.0,0.0,88,0.00,,---,0.00,0.00,VWS V14.01,2013-02-24 06:48:00,
2013-02-24 00:53:00,18.1,15.4,29.97,SW,230,0.0,0.0,89,0.00,,---,0.00,0.00,VWS V14.01,2013-02-24 06:53:00,
2013-02-24 00:58:00,17.7,14.8,29.97,SW,230,0.0,0.0,88,0.00,,---,0.00,0.00,VWS V14.01,2013-02-24 06:58:00,
2013-02-24 01:03:00,17.6,14.9,29.97,SW,230,0.0,0.0,89,0.00,,---,0.00,0.00,VWS V14.01,2013-02-24 07:03:00,
2013-02-24 01:08:00,17.5,14.8,29.97,SW,230,0.0,0.0,89,0.00,,---,0.00,0.00,VWS V14.01,2013-02-24 07:08:00,
2013-02-24 01:13:00,17.3,14.6,29.97,SW,230,0.0,0.0,89,0.00,,---,0.00,0.00,VWS V14.01,2013-02-24 07:13:00,
2013-02-24 01:18:00,17.3,14.9,29.98,SW,230,0.0,0.0,90,0.00,,---,0.00,0.00,VWS V14.01,2013-02-24 07:18:00,
2013-02-24 01:23:00,17.2,14.8,29.98,SW,230,0.0,0.0,90,0.00,,---,0.00,0.00,VWS V14.01,2013-02-24 07:23:00,
2013-02-24 01:28:00,17.1,14.7,29.98,SW,230,3.0,3.0,90,0.00,,---,0.00,0.00,VWS V14.01,2013-02-24 07:28:00,
2013-02-24 01:33:00,17.0,14.6,29.98,SW,230,1.0,2.0,90,0.00,,---,0.00,0.00,VWS V14.01,2013-02-24 07:33:00,
2013-02-24 01:38:00,17.0,14.6,29.98,SW,230,1.0,1.0,90,0.00,,---,0.00,0.00,VWS V14.01,2013-02-24 07:38:00,
2013-02-24 01:43:00,16.8,14.4,29.98,SW,230,2.0,4.0,90,0.00,,---,0.00,0.00,VWS V14.01,2013-02-24 07:43:00,
2013-02-24 01:48:00,16.7,14.3,29.99,SW,230,4.0,4.0,90,0.00,,---,0.00,0.00,VWS V14.01,2013-02-24 07:48:00,
2013-02-24 01:54:00,16.8,14.4,29.99,SW,230,4.0,4.0,90,0.00,,---,0.00,0.00,VWS V14.01,2013-02-24 07:54:00,
2013-02-24 01:59:00,16.8,14.4,29.99,SW,230,4.0,4.0,90,0.00,,---,0.00,0.00,VWS V14.01,2013-02-24 07:59:00,
2013-02-24 02:04:00,16.6,14.2,30.00,SW,230,1.0,4.0,90,0.00,,---,0.00,0.00,VWS V14.01,2013-02-24 08:04:00,
2013-02-24 02:09:00,16.6,14.2,30.00,SW,230,2.0,3.0,90,0.00,,---,0.00,0.00,VWS V14.01,2013-02-24 08:09:00,
2013-02-24 02:14:00,16.4,14.0,30.00,SW,230,0.0,1.0,90,0.00,,---,0.00,0.00,VWS V14.01,2013-02-24 08:14:00,
2013-02-24 02:19:00,16.4,14.0,30.00,SW,230,0.0,0.0,90,0.00,,---,0.00,0.00,VWS V14.01,2013-02-24 08:19:00,
2013-02-24 02:24:00,16.3,13.9,30.00,SW,230,0.0,0.0,90,0.00,,---,0.00,0.00,VWS V14.01,2013-02-24 08:24:00,
2013-02-24 02:29:00,16.2,13.8,30.00,SW,230,0.0,0.0,90,0.00,,---,0.00,0.00,VWS V14.01,2013-02-24 08:29:00,
2013-02-24 02:34:00,16.2,13.8,30.00,SW,230,1.0,2.0,90,0.00,,---,0.00,0.00,VWS V14.01,2013-02-24 08:34:00,
2013-02-24 02:39:00,16.3,14.1,30.00,SW,230,4.0,4.0,91,0.00,,---,0.00,0.00,VWS V14.01,2013-02-24 08:39:00,
2013-02-24 02:44:00,16.3,14.1,30.00,SW,230,2.0,2.0,91,0.00,,---,0.00,0.00,VWS V14.01,2013-02-24 08:44:00,
2013-02-24 02:49:00,16.4,14.2,30.00,SW,230,0.0,3.0,91,0.00,,---,0.00,0.00,VWS V14.01,2013-02-24 08:49:00,
2013-02-24 02:54:00,16.3,14.1,30.00,SW,230,1.0,4.0,91,0.00,,---,0.00,0.00,VWS V14.01,2013-02-24 08:54:00,
2013-02-24 02:59:00,16.3,14.1,30.00,SW,230,5.0,5.0,91,0.00,,---,0.00,0.00,VWS V14.01,2013-02-24 08:59:00,
2013-02-24 03:04:00,16.2,14.0,30.01,SW,230,0.0,4.0,91,0.00,,---,0.00,0.00,VWS V14.01,2013-02-24 09:04:00,
2013-02-24 03:09:00,16.1,13.9,30.01,SW,230,0.0,0.0,91,0.00,,---,0.00,0.00,VWS V14.01,2013-02-24 09:09:00,
2013-02-24 03:14:00,16.1,13.9,30.01,SW,230,1.0,3.0,91,0.00,,---,0.00,0.00,VWS V14.01,2013-02-24 09:14:00,
2013-02-24 03:19:00,16.0,13.8,30.00,SW,230,3.0,3.0,91,0.00,,---,0.00,0.00,VWS V14.01,2013-02-24 09:19:00,
2013-02-24 03:25:00,15.9,13.7,30.00,SW,230,1.0,3.0,91,0.00,,---,0.00,0.00,VWS V14.01,2013-02-24 09:25:00,
2013-02-24 03:30:00,15.9,13.7,30.00,SW,230,0.0,0.0,91,0.00,,---,0.00,0.00,VWS V14.01,2013-02-24 09:30:00,
2013-02-24 03:35:00,15.9,13.7,30.01,SW,230,2.0,5.0,91,0.00,,---,0.00,0.00,VWS V14.01,2013-02-24 09:35:00,
2013-02-24 03:40:00,15.8,13.6,30.01,SW,230,4.0,4.0,91,0.00,,---,0.00,0.00,VWS V14.01,2013-02-24 09:40:00,
2013-02-24 03:45:00,15.7,13.5,30.01,SW,230,2.0,2.0,91,0.00,,---,0.00,0.00,VWS V14.01,2013-02-24 09:45:00,
2013-02-24 03:50:00,15.6,13.4,30.00,SW,230,0.0,2.0,91,0.00,,---,0.00,0.00,VWS V14.01,2013-02-24 09:50:00,
2013-02-24 03:55:00,15.4,13.2,30.00,SW,230,0.0,0.0,91,0.00,,---,0.00,0.00,VWS V14.01,2013-02-24 09:55:00,
2013-02-24 04:00:00,15.3,13.1,30.00,SW,230,0.0,1.0,91,0.00,,---,0.00,0.00,VWS V14.01,2013-02-24 10:00:00,
2013-02-24 04:05:00,15.2,13.1,30.00,SW,230,0.0,0.0,91,0.00,,---,0.00,0.00,VWS V14.01,2013-02-24 10:05:00,
2013-02-24 04:10:00,15.0,12.9,30.00,SW,230,0.0,0.0,91,0.00,,---,0.00,0.00,VWS V14.01,2013-02-24 10:10:00,
2013-02-24 04:15:00,14.9,12.8,30.00,SW,230,0.0,0.0,91,0.00,,---,0.00,0.00,VWS V14.01,2013-02-24 10:15:00,
2013-02-24 04:20:00,14.8,12.6,30.00,SW,230,0.0,0.0,91,0.00,,---,0.00,0.00,VWS V14.01,2013-02-24 10:20:00,
2013-02-24 04:26:00,14.6,12.5,30.00,SW,230,0.0,0.0,91,0.00,,---,0.00,0.00,VWS V14.01,2013-02-24 10:26:00,
2013-02-24 04:31:00,14.6,12.5,30.01,SW,230,0.0,0.0,91,0.00,,---,0.00,0.00,VWS V14.01,2013-02-24 10:31:00,
2013-02-24 04:36:00,14.6,12.5,30.01,SW,230,1.0,3.0,91,0.00,,---,0.00,0.00,VWS V14.01,2013-02-24 10:36:00,
2013-02-24 04:41:00,14.5,12.4,30.01,SW,230,2.0,2.0,91,0.00,,---,0.00,0.00,VWS V14.01,2013-02-24 10:41:00,
2013-02-24 04:46:00,14.5,12.4,30.01,SW,230,0.0,0.0,91,0.00,,---,0.00,0.00,VWS V14.01,2013-02-24 10:46:00,
2013-02-24 04:51:00,14.5,12.4,30.01,SW,230,0.0,0.0,91,0.00,,---,0.00,0.00,VWS V14.01,2013-02-24 10:51:00,
2013-02-24 04:56:00,14.3,12.2,30.01,SW,230,0.0,1.0,91,0.00,,---,0.00,0.00,VWS V14.01,2013-02-24 10:56:00,
2013-02-24 05:01:00,14.1,12.0,30.02,SW,230,0.0,0.0,91,0.00,,---,0.00,0.00,VWS V14.01,2013-02-24 11:01:00,
2013-02-24 05:06:00,14.0,11.9,30.02,SW,230,1.0,2.0,91,0.00,,---,0.00,0.00,VWS V14.01,2013-02-24 11:06:00,
2013-02-24 05:11:00,13.7,11.6,30.02,SW,230,0.0,0.0,91,0.00,,---,0.00,0.00,VWS V14.01,2013-02-24 11:11:00,
2013-02-24 05:16:00,13.6,11.5,30.02,SW,230,0.0,0.0,91,0.00,,---,0.00,0.00,VWS V14.01,2013-02-24 11:16:00,
2013-02-24 05:21:00,13.5,11.4,30.02,SW,230,0.0,0.0,91,0.00,,---,0.00,0.00,VWS V14.01,2013-02-24 11:21:00,
2013-02-24 05:26:00,13.4,11.3,30.02,SW,230,0.0,0.0,91,0.00,,---,0.00,0.00,VWS V14.01,2013-02-24 11:26:00,
2013-02-24 05:31:00,13.2,11.1,30.03,SW,230,0.0,0.0,91,0.00,,---,0.00,0.00,VWS V14.01,2013-02-24 11:31:00,
2013-02-24 05:36:00,12.9,10.5,30.03,SW,230,0.0,0.0,90,0.00,,---,0.00,0.00,VWS V14.01,2013-02-24 11:36:00,
2013-02-24 05:42:00,12.9,10.5,30.03,SW,230,0.0,0.0,90,0.00,,---,0.00,0.00,VWS V14.01,2013-02-24 11:42:00,
2013-02-24 05:47:00,12.7,10.3,30.03,SW,230,0.0,0.0,90,0.00,,---,0.00,0.00,VWS V14.01,2013-02-24 11:47:00,
2013-02-24 05:52:00,12.6,10.2,30.03,SW,230,0.0,0.0,90,0.00,,---,0.00,0.00,VWS V14.01,2013-02-24 11:52:00,
2013-02-24 05:57:00,12.5,10.1,30.03,SW,230,0.0,0.0,90,0.00,,---,0.00,0.00,VWS V14.01,2013-02-24 11:57:00,
2013-02-24 06:02:00,12.4,10.0,30.03,SW,230,0.0,0.0,90,0.00,,---,0.00,0.00,VWS V14.01,2013-02-24 12:02:00,
2013-02-24 06:07:00,12.3,9.9,30.03,SW,230,0.0,0.0,90,0.00,,---,0.00,0.00,VWS V14.01,2013-02-24 12:07:00,
2013-02-24 06:12:00,12.3,9.9,30.03,SW,230,0.0,0.0,90,0.00,,---,0.00,0.00,VWS V14.01,2013-02-24 12:12:00,
2013-02-24 06:17:00,12.2,10.1,30.03,SW,230,0.0,0.0,91,0.00,,---,0.00,0.00,VWS V14.01,2013-02-24 12:17:00,
2013-02-24 06:22:00,12.3,10.2,30.03,SW,230,0.0,0.0,91,0.00,,---,0.00,0.00,VWS V14.01,2013-02-24 12:22:00,
2013-02-24 06:27:00,12.3,10.2,30.03,SW,230,0.0,0.0,91,0.00,,---,0.00,0.00,VWS V14.01,2013-02-24 12:27:00,
2013-02-24 06:32:00,12.3,9.9,30.05,SW,230,0.0,0.0,90,0.00,,---,0.00,0.00,VWS V14.01,2013-02-24 12:32:00,
2013-02-24 06:37:00,12.2,9.8,30.05,SW,230,0.0,0.0,90,0.00,,---,0.00,0.00,VWS V14.01,2013-02-24 12:37:00,
2013-02-24 06:42:00,12.1,9.7,30.05,SW,230,0.0,0.0,90,0.00,,---,0.00,0.00,VWS V14.01,2013-02-24 12:42:00,
2013-02-24 06:47:00,11.9,9.5,30.05,SW,230,0.0,0.0,90,0.00,,---,0.00,0.00,VWS V14.01,2013-02-24 12:47:00,
2013-02-24 06:52:00,12.0,9.6,30.05,SW,230,0.0,0.0,90,0.00,,---,0.00,0.00,VWS V14.01,2013-02-24 12:52:00,
2013-02-24 06:57:00,11.8,9.4,30.05,SW,230,0.0,0.0,90,0.00,,---,0.00,0.00,VWS V14.01,2013-02-24 12:57:00,
2013-02-24 07:02:00,11.9,9.5,30.05,SW,230,0.0,0.0,90,0.00,,---,0.00,5.00,VWS V14.01,2013-02-24 13:02:00,
2013-02-24 07:07:00,12.0,9.6,30.05,SW,230,0.0,0.0,90,0.00,,---,0.00,9.00,VWS V14.01,2013-02-24 13:07:00,
2013-02-24 07:13:00,12.1,9.7,30.05,SW,230,0.0,0.0,90,0.00,,---,0.00,14.00,VWS V14.01,2013-02-24 13:13:00,
2013-02-24 07:18:00,12.3,9.9,30.05,SW,230,0.0,0.0,90,0.00,,---,0.00,19.00,VWS V14.01,2013-02-24 13:18:00,
2013-02-24 07:23:00,12.5,10.4,30.05,SW,230,0.0,0.0,91,0.00,,---,0.00,25.00,VWS V14.01,2013-02-24 13:23:00,
2013-02-24 07:28:00,12.6,10.5,30.05,SW,230,1.0,2.0,91,0.00,,---,0.00,33.00,VWS V14.01,2013-02-24 13:28:00,
2013-02-24 07:33:00,12.5,10.4,30.06,SW,230,0.0,1.0,91,0.00,,---,0.00,54.00,VWS V14.01,2013-02-24 13:33:00,
2013-02-24 07:38:00,12.5,10.4,30.06,SW,230,1.0,2.0,91,0.00,,---,0.00,53.00,VWS V14.01,2013-02-24 13:38:00,
2013-02-24 07:43:00,12.5,10.4,30.06,SW,230,0.0,0.0,91,0.00,,---,0.00,60.00,VWS V14.01,2013-02-24 13:43:00,
2013-02-24 07:48:00,12.6,10.5,30.06,SW,230,0.0,0.0,91,0.00,,---,0.00,72.00,VWS V14.01,2013-02-24 13:48:00,
2013-02-24 07:53:00,12.8,10.7,30.06,SW,230,0.0,0.0,91,0.00,,---,0.00,86.00,VWS V14.01,2013-02-24 13:53:00,
2013-02-24 07:58:00,13.0,10.9,30.06,SW,230,0.0,0.0,91,0.00,,---,0.00,105.00,VWS V14.01,2013-02-24 13:58:00,
2013-02-24 08:03:00,13.6,11.5,30.06,SW,230,0.0,0.0,91,0.00,,---,0.00,130.00,VWS V14.01,2013-02-24 14:03:00,
2013-02-24 08:08:00,14.3,12.4,30.06,SW,230,0.0,0.0,92,0.00,,---,0.00,162.00,VWS V14.01,2013-02-24 14:08:00,
2013-02-24 08:13:00,15.0,13.1,30.06,SW,230,0.0,0.0,92,0.00,,---,0.00,176.00,VWS V14.01,2013-02-24 14:13:00,
2013-02-24 08:18:00,15.3,13.4,30.07,SW,230,0.0,0.0,92,0.00,,---,0.00,190.00,VWS V14.01,2013-02-24 14:18:00,
2013-02-24 08:23:00,15.1,12.9,30.07,SW,230,0.0,2.0,91,0.00,,---,0.00,200.00,VWS V14.01,2013-02-24 14:23:00,
2013-02-24 08:28:00,14.9,12.8,30.07,SW,230,0.0,0.0,91,0.00,,---,0.00,244.00,VWS V14.01,2013-02-24 14:28:00,
2013-02-24 08:34:00,15.1,12.9,30.07,SW,230,0.0,0.0,91,0.00,,---,0.00,223.00,VWS V14.01,2013-02-24 14:34:00,
2013-02-24 08:39:00,15.5,13.4,30.07,SW,230,0.0,0.0,91,0.00,,---,0.00,216.00,VWS V14.01,2013-02-24 14:39:00,
2013-02-24 08:44:00,16.0,13.8,30.07,SW,230,0.0,0.0,91,0.00,,---,0.00,258.00,VWS V14.01,2013-02-24 14:44:00,
2013-02-24 08:49:00,16.5,14.3,30.07,SW,230,0.0,0.0,91,0.00,,---,0.00,220.00,VWS V14.01,2013-02-24 14:49:00,
2013-02-24 08:54:00,17.5,15.6,30.07,SW,230,0.0,0.0,92,0.00,,---,0.00,239.00,VWS V14.01,2013-02-24 14:54:00,
2013-02-24 08:59:00,18.2,16.3,30.07,SW,230,0.0,0.0,92,0.00,,---,0.00,267.00,VWS V14.01,2013-02-24 14:59:00,
2013-02-24 09:04:00,18.4,16.2,30.07,SW,230,0.0,0.0,91,0.00,,---,0.00,209.00,VWS V14.01,2013-02-24 15:04:00,
2013-02-24 09:09:00,18.2,15.8,30.07,SW,230,0.0,0.0,90,0.00,,---,0.00,192.00,VWS V14.01,2013-02-24 15:09:00,
2013-02-24 09:14:00,17.9,15.5,30.07,SW,230,0.0,0.0,90,0.00,,---,0.00,272.00,VWS V14.01,2013-02-24 15:14:00,
2013-02-24 09:19:00,18.0,15.6,30.08,SW,230,1.0,1.0,90,0.00,,---,0.00,304.00,VWS V14.01,2013-02-24 15:19:00,
2013-02-24 09:24:00,18.3,15.6,30.08,SW,230,0.0,0.0,89,0.00,,---,0.00,313.00,VWS V14.01,2013-02-24 15:24:00,
2013-02-24 09:29:00,18.6,15.9,30.08,SW,230,0.0,0.0,89,0.00,,---,0.00,325.00,VWS V14.01,2013-02-24 15:29:00,
2013-02-24 09:34:00,19.0,16.3,30.08,SW,230,0.0,0.0,89,0.00,,---,0.00,388.00,VWS V14.01,2013-02-24 15:34:00,
2013-02-24 09:39:00,19.7,16.7,30.08,SW,230,0.0,0.0,88,0.00,,---,0.00,260.00,VWS V14.01,2013-02-24 15:39:00,
2013-02-24 09:44:00,20.0,17.0,30.08,SW,230,0.0,0.0,88,0.00,,---,0.00,248.00,VWS V14.01,2013-02-24 15:44:00,
2013-02-24 09:49:00,20.4,17.2,30.08,SW,230,0.0,0.0,87,0.00,,---,0.00,299.00,VWS V14.01,2013-02-24 15:49:00,
2013-02-24 09:54:00,20.9,17.4,30.08,SW,230,0.0,0.0,86,0.00,,---,0.00,267.00,VWS V14.01,2013-02-24 15:54:00,
2013-02-24 10:00:00,21.3,17.8,30.08,SW,230,0.0,0.0,86,0.00,,---,0.00,318.00,VWS V14.01,2013-02-24 16:00:00,
2013-02-24 10:05:00,22.0,18.2,30.07,SW,230,0.0,0.0,85,0.00,,---,0.00,304.00,VWS V14.01,2013-02-24 16:05:00,
2013-02-24 10:10:00,23.1,19.3,30.07,SW,230,0.0,0.0,85,0.00,,---,0.00,316.00,VWS V14.01,2013-02-24 16:10:00,
2013-02-24 10:15:00,23.8,19.4,30.07,SW,230,0.0,0.0,83,0.00,,---,0.00,334.00,VWS V14.01,2013-02-24 16:15:00,
2013-02-24 10:20:00,23.5,18.5,30.08,SW,230,0.0,1.0,81,0.00,,---,0.00,350.00,VWS V14.01,2013-02-24 16:20:00,
2013-02-24 10:25:00,23.3,18.3,30.08,SW,230,0.0,0.0,81,0.00,,---,0.00,348.00,VWS V14.01,2013-02-24 16:25:00,
2013-02-24 10:30:00,23.6,18.6,30.08,SW,230,0.0,1.0,81,0.00,,---,0.00,350.00,VWS V14.01,2013-02-24 16:30:00,
2013-02-24 10:35:00,23.7,18.5,30.08,SW,230,0.0,1.0,80,0.00,,---,0.00,330.00,VWS V14.01,2013-02-24 16:35:00,
2013-02-24 10:40:00,23.9,18.6,30.08,SW,230,0.0,0.0,80,0.00,,---,0.00,320.00,VWS V14.01,2013-02-24 16:40:00,
2013-02-24 10:45:00,23.7,18.5,30.08,SW,230,3.0,3.0,80,0.00,,---,0.00,327.00,VWS V14.01,2013-02-24 16:45:00,
2013-02-24 10:50:00,24.1,19.1,30.08,SW,230,0.0,0.0,81,0.00,,---,0.00,387.00,VWS V14.01,2013-02-24 16:50:00,
2013-02-24 10:55:00,25.2,20.2,30.08,SW,230,0.0,0.0,81,0.00,,---,0.00,417.00,VWS V14.01,2013-02-24 16:55:00,
2013-02-24 11:01:00,26.2,20.6,30.08,SW,230,0.0,1.0,79,0.00,,---,0.00,492.00,VWS V14.01,2013-02-24 17:01:00,
2013-02-24 11:06:00,26.5,20.3,30.08,SW,230,0.0,1.0,77,0.00,,---,0.00,519.00,VWS V14.01,2013-02-24 17:06:00,
2013-02-24 11:11:00,27.2,21.0,30.08,SW,230,0.0,0.0,77,0.00,,---,0.00,524.00,VWS V14.01,2013-02-24 17:11:00,
2013-02-24 11:16:00,27.9,21.0,30.08,SW,230,0.0,2.0,75,0.00,,---,0.00,512.00,VWS V14.01,2013-02-24 17:16:00,
2013-02-24 11:21:00,27.7,20.5,30.08,SW,230,0.0,1.0,74,0.00,,---,0.00,570.00,VWS V14.01,2013-02-24 17:21:00,
2013-02-24 11:26:00,28.1,20.9,30.08,SW,230,0.0,0.0,74,0.00,,---,0.00,501.00,VWS V14.01,2013-02-24 17:26:00,
2013-02-24 11:31:00,28.9,21.4,30.08,SW,230,0.0,0.0,73,0.00,,---,0.00,538.00,VWS V14.01,2013-02-24 17:31:00,
2013-02-24 11:36:00,29.4,21.8,30.08,SW,230,0.0,5.0,73,0.00,,---,0.00,512.00,VWS V14.01,2013-02-24 17:36:00,
2013-02-24 11:41:00,29.0,21.4,30.08,WSW,251,2.0,5.0,73,0.00,,---,0.00,424.00,VWS V14.01,2013-02-24 17:41:00,
2013-02-24 11:46:00,28.9,21.4,30.09,WSW,250,1.0,3.0,73,0.00,,---,0.00,624.00,VWS V14.01,2013-02-24 17:46:00,
2013-02-24 11:51:00,29.7,22.1,30.09,WSW,251,2.0,4.0,73,0.00,,---,0.00,582.00,VWS V14.01,2013-02-24 17:51:00,
2013-02-24 11:56:00,30.0,21.8,30.09,WSW,248,1.0,6.0,71,0.00,,---,0.00,703.00,VWS V14.01,2013-02-24 17:56:00,
2013-02-24 12:01:00,30.5,22.2,30.08,WSW,246,0.0,0.0,71,0.00,,---,0.00,737.00,VWS V14.01,2013-02-24 18:01:00,
2013-02-24 12:06:00,31.4,22.8,30.08,WSW,248,0.0,3.0,70,0.00,,---,0.00,619.00,VWS V14.01,2013-02-24 18:06:00,
2013-02-24 12:11:00,31.7,22.7,30.08,WSW,244,1.0,6.0,69,0.00,,---,0.00,504.00,VWS V14.01,2013-02-24 18:11:00,
2013-02-24 12:16:00,30.7,21.4,30.08,SW,214,4.0,5.0,68,0.00,,---,0.00,427.00,VWS V14.01,2013-02-24 18:16:00,
2013-02-24 12:22:00,31.0,22.4,30.08,SW,214,3.0,4.0,70,0.00,,---,0.00,545.00,VWS V14.01,2013-02-24 18:22:00,
2013-02-24 12:27:00,32.0,23.0,30.08,SSW,199,2.0,6.0,69,0.00,,---,0.00,679.00,VWS V14.01,2013-02-24 18:27:00,
2013-02-24 12:32:00,32.0,22.6,30.08,SSW,200,3.0,3.0,68,0.00,,---,0.00,406.00,VWS V14.01,2013-02-24 18:32:00,
2013-02-24 12:37:00,32.3,22.6,30.08,SSW,200,1.0,1.0,67,0.00,,---,0.00,554.00,VWS V14.01,2013-02-24 18:37:00,
2013-02-24 12:42:00,32.9,22.8,30.08,SSW,200,2.0,2.0,66,0.00,,---,0.00,578.00,VWS V14.01,2013-02-24 18:42:00,
2013-02-24 12:47:00,33.1,22.6,30.08,SSW,199,0.0,4.0,65,0.00,,---,0.00,610.00,VWS V14.01,2013-02-24 18:47:00,
2013-02-24 12:52:00,33.4,22.9,30.08,SSW,199,4.0,4.0,65,0.00,,---,0.00,396.00,VWS V14.01,2013-02-24 18:52:00,
2013-02-24 12:57:00,33.0,22.5,30.08,SSW,199,1.0,5.0,65,0.00,,---,0.00,468.00,VWS V14.01,2013-02-24 18:57:00,
2013-02-24 13:02:00,32.9,22.4,30.08,SSW,199,0.0,3.0,65,0.00,,---,0.00,380.00,VWS V14.01,2013-02-24 19:02:00,
2013-02-24 13:07:00,33.3,22.8,30.08,SSW,205,3.0,6.0,65,0.00,,---,0.00,786.00,VWS V14.01,2013-02-24 19:07:00,
2013-02-24 13:12:00,33.7,23.2,30.08,SSW,205,0.0,2.0,65,0.00,,---,0.00,469.00,VWS V14.01,2013-02-24 19:12:00,
2013-02-24 13:17:00,33.1,22.3,30.08,SSW,202,5.0,7.0,64,0.00,,---,0.00,527.00,VWS V14.01,2013-02-24 19:17:00,
2013-02-24 13:22:00,33.0,22.5,30.08,SSW,207,1.0,3.0,65,0.00,,---,0.00,671.00,VWS V14.01,2013-02-24 19:22:00,
2013-02-24 13:27:00,33.9,23.0,30.08,SSW,207,0.0,5.0,64,0.00,,---,0.00,617.00,VWS V14.01,2013-02-24 19:27:00,
2013-02-24 13:32:00,34.3,23.4,30.07,SSW,198,1.0,3.0,64,0.00,,---,0.00,410.00,VWS V14.01,2013-02-24 19:32:00,
2013-02-24 13:38:00,34.2,22.9,30.07,SSW,194,7.0,7.0,63,0.00,,---,0.00,582.00,VWS V14.01,2013-02-24 19:38:00,
2013-02-24 13:43:00,34.3,23.0,30.07,SSW,204,5.0,6.0,63,0.00,,---,0.00,559.00,VWS V14.01,2013-02-24 19:43:00,
2013-02-24 13:48:00,34.5,22.8,30.07,SSW,202,0.0,5.0,62,0.00,,---,0.00,434.00,VWS V14.01,2013-02-24 19:48:00,
2013-02-24 13:53:00,33.7,22.1,30.07,SSW,202,7.0,9.0,62,0.00,,---,0.00,429.00,VWS V14.01,2013-02-24 19:53:00,
2013-02-24 13:58:00,33.4,22.2,30.07,SSW,202,0.0,3.0,63,0.00,,---,0.00,390.00,VWS V14.01,2013-02-24 19:58:00,
2013-02-24 14:03:00,34.0,22.7,30.07,SSW,204,0.0,4.0,63,0.00,,---,0.00,388.00,VWS V14.01,2013-02-24 20:03:00,
2013-02-24 14:08:00,34.3,23.0,30.07,SSW,203,0.0,1.0,63,0.00,,---,0.00,394.00,VWS V14.01,2013-02-24 20:08:00,
2013-02-24 14:13:00,34.9,23.2,30.07,SSW,203,0.0,0.0,62,0.00,,---,0.00,376.00,VWS V14.01,2013-02-24 20:13:00,
2013-02-24 14:18:00,34.4,22.4,30.07,SSW,196,0.0,4.0,61,0.00,,---,0.00,443.00,VWS V14.01,2013-02-24 20:18:00,
2013-02-24 14:23:00,34.4,22.7,30.07,SSW,195,1.0,2.0,62,0.00,,---,0.00,431.00,VWS V14.01,2013-02-24 20:23:00,
2013-02-24 14:28:00,35.0,22.9,30.07,SSW,198,0.0,3.0,61,0.00,,---,0.00,380.00,VWS V14.01,2013-02-24 20:28:00,
2013-02-24 14:33:00,34.5,22.1,30.07,SSW,194,1.0,4.0,60,0.00,,---,0.00,315.00,VWS V14.01,2013-02-24 20:33:00,
2013-02-24 14:38:00,33.9,22.3,30.07,South,185,0.0,2.0,62,0.00,,---,0.00,313.00,VWS V14.01,2013-02-24 20:38:00,
2013-02-24 14:43:00,33.7,22.1,30.07,South,185,1.0,3.0,62,0.00,,---,0.00,315.00,VWS V14.01,2013-02-24 20:43:00,
2013-02-24 14:49:00,34.1,22.5,30.06,South,184,3.0,4.0,62,0.00,,---,0.00,366.00,VWS V14.01,2013-02-24 20:49:00,
2013-02-24 14:54:00,34.6,22.9,30.06,South,184,0.0,0.0,62,0.00,,---,0.00,353.00,VWS V14.01,2013-02-24 20:54:00,
2013-02-24 14:59:00,35.0,22.9,30.06,South,184,2.0,4.0,61,0.00,,---,0.00,316.00,VWS V14.01,2013-02-24 20:59:00,
2013-02-24 15:04:00,34.8,22.3,30.06,South,185,0.0,0.0,60,0.00,,---,0.00,274.00,VWS V14.01,2013-02-24 21:04:00,
2013-02-24 15:09:00,34.7,22.6,30.06,South,184,0.0,0.0,61,0.00,,---,0.00,279.00,VWS V14.01,2013-02-24 21:09:00,
2013-02-24 15:14:00,34.5,22.5,30.06,South,185,0.0,0.0,61,0.00,,---,0.00,292.00,VWS V14.01,2013-02-24 21:14:00,
2013-02-24 15:19:00,34.8,23.1,30.06,South,184,0.0,2.0,62,0.00,,---,0.00,299.00,VWS V14.01,2013-02-24 21:19:00,
2013-02-24 15:24:00,35.0,22.9,30.06,South,184,0.0,0.0,61,0.00,,---,0.00,292.00,VWS V14.01,2013-02-24 21:24:00,
2013-02-24 15:29:00,35.1,23.0,30.06,South,184,0.0,0.0,61,0.00,,---,0.00,285.00,VWS V14.01,2013-02-24 21:29:00,
2013-02-24 15:34:00,35.4,22.9,30.06,South,184,1.0,1.0,60,0.00,,---,0.00,355.00,VWS V14.01,2013-02-24 21:34:00,
2013-02-24 15:39:00,35.2,23.1,30.06,South,183,1.0,3.0,61,0.00,,---,0.00,287.00,VWS V14.01,2013-02-24 21:39:00,
2013-02-24 15:44:00,34.5,22.8,30.06,SSE,157,0.0,1.0,62,0.00,,---,0.00,345.00,VWS V14.01,2013-02-24 21:44:00,
2013-02-24 15:49:00,34.8,23.1,30.06,SSE,156,3.0,4.0,62,0.00,,---,0.00,276.00,VWS V14.01,2013-02-24 21:49:00,
2013-02-24 15:54:00,34.5,22.8,30.06,South,169,5.0,5.0,62,0.00,,---,0.00,352.00,VWS V14.01,2013-02-24 21:54:00,
2013-02-24 15:59:00,34.8,23.1,30.06,NE,56,0.0,0.0,62,0.00,,---,0.00,359.00,VWS V14.01,2013-02-24 21:59:00,
2013-02-24 16:05:00,35.7,23.6,30.06,NE,56,0.0,4.0,61,0.00,,---,0.00,271.00,VWS V14.01,2013-02-24 22:05:00,
2013-02-24 16:10:00,35.7,22.8,30.06,ESE,105,0.0,1.0,59,0.00,,---,0.00,294.00,VWS V14.01,2013-02-24 22:10:00,
2013-02-24 16:15:00,36.3,23.4,30.06,ESE,105,0.0,2.0,59,0.00,,---,0.00,313.00,VWS V14.01,2013-02-24 22:15:00,
2013-02-24 16:20:00,35.9,23.0,30.06,ESE,105,3.0,5.0,59,0.00,,---,0.00,279.00,VWS V14.01,2013-02-24 22:20:00,
2013-02-24 16:25:00,35.7,23.2,30.06,ESE,105,0.0,0.0,60,0.00,,---,0.00,206.00,VWS V14.01,2013-02-24 22:25:00,
2013-02-24 16:30:00,35.5,22.6,30.06,ESE,105,0.0,3.0,59,0.00,,---,0.00,188.00,VWS V14.01,2013-02-24 22:30:00,
2013-02-24 16:35:00,35.0,22.5,30.05,ESE,105,2.0,4.0,60,0.00,,---,0.00,171.00,VWS V14.01,2013-02-24 22:35:00,
2013-02-24 16:40:00,35.0,22.9,30.05,ESE,105,0.0,1.0,61,0.00,,---,0.00,174.00,VWS V14.01,2013-02-24 22:40:00,
2013-02-24 16:45:00,35.0,22.9,30.05,ESE,105,0.0,3.0,61,0.00,,---,0.00,149.00,VWS V14.01,2013-02-24 22:45:00,
2013-02-24 16:50:00,35.3,23.2,30.05,ESE,105,0.0,2.0,61,0.00,,---,0.00,132.00,VWS V14.01,2013-02-24 22:50:00,
2013-02-24 16:55:00,35.2,23.1,30.05,ESE,105,4.0,5.0,61,0.00,,---,0.00,107.00,VWS V14.01,2013-02-24 22:55:00,
2013-02-24 17:00:00,34.7,22.6,30.05,ESE,105,0.0,5.0,61,0.00,,---,0.00,95.00,VWS V14.01,2013-02-24 23:00:00,
2013-02-24 17:05:00,34.8,22.7,30.05,ESE,107,2.0,6.0,61,0.00,,---,0.00,76.00,VWS V14.01,2013-02-24 23:05:00,
2013-02-24 17:10:00,34.7,22.6,30.05,ESE,106,1.0,6.0,61,0.00,,---,0.00,60.00,VWS V14.01,2013-02-24 23:10:00,
2013-02-24 17:15:00,34.4,22.7,30.06,ESE,107,0.0,0.0,62,0.00,,---,0.00,49.00,VWS V14.01,2013-02-24 23:15:00,
2013-02-24 17:20:00,34.2,22.5,30.06,ESE,123,4.0,7.0,62,0.00,,---,0.00,35.00,VWS V14.01,2013-02-24 23:20:00,
2013-02-24 17:25:00,33.9,22.6,30.06,SE,126,3.0,5.0,63,0.00,,---,0.00,26.00,VWS V14.01,2013-02-24 23:25:00,
2013-02-24 17:30:00,33.6,22.4,30.07,SE,130,4.0,5.0,63,0.00,,---,0.00,21.00,VWS V14.01,2013-02-24 23:30:00,
2013-02-24 17:35:00,33.3,22.1,30.07,SE,131,4.0,6.0,63,0.00,,---,0.00,16.00,VWS V14.01,2013-02-24 23:35:00,
2013-02-24 17:40:00,33.1,22.3,30.07,SE,133,0.0,3.0,64,0.00,,---,0.00,12.00,VWS V14.01,2013-02-24 23:40:00,
2013-02-24 17:46:00,32.9,22.1,30.06,SE,133,2.0,3.0,64,0.00,,---,0.00,9.00,VWS V14.01,2013-02-24 23:46:00,
2013-02-24 17:51:00,32.6,21.8,30.06,SE,134,2.0,3.0,64,0.00,,---,0.00,5.00,VWS V14.01,2013-02-24 23:51:00,
2013-02-24 17:56:00,32.5,22.1,30.06,SE,134,3.0,5.0,65,0.00,,---,0.00,0.00,VWS V14.01,2013-02-24 23:56:00,
2013-02-24 18:01:00,32.3,21.9,30.06,SE,134,1.0,2.0,65,0.00,,---,0.00,0.00,VWS V14.01,2013-02-25 00:01:00,
2013-02-24 18:06:00,32.1,22.0,30.06,SE,134,2.0,3.0,66,0.00,,---,0.00,0.00,VWS V14.01,2013-02-25 00:06:00,
2013-02-24 18:11:00,31.9,21.9,30.06,SE,134,0.0,3.0,66,0.00,,---,0.00,0.00,VWS V14.01,2013-02-25 00:11:00,
2013-02-24 18:16:00,31.7,21.7,30.06,SE,134,0.0,1.0,66,0.00,,---,0.00,0.00,VWS V14.01,2013-02-25 00:16:00,
2013-02-24 18:21:00,31.6,21.9,30.06,SE,134,2.0,3.0,67,0.00,,---,0.00,0.00,VWS V14.01,2013-02-25 00:21:00,
2013-02-24 18:26:00,31.5,21.8,30.06,SE,134,3.0,3.0,67,0.00,,---,0.00,0.00,VWS V14.01,2013-02-25 00:26:00,
2013-02-24 18:31:00,31.4,21.7,30.06,SE,133,3.0,3.0,67,0.00,,---,0.00,0.00,VWS V14.01,2013-02-25 00:31:00,
2013-02-24 18:36:00,31.3,22.0,30.06,SE,134,0.0,1.0,68,0.00,,---,0.00,0.00,VWS V14.01,2013-02-25 00:36:00,
2013-02-24 18:41:00,31.0,21.7,30.06,SE,133,0.0,2.0,68,0.00,,---,0.00,0.00,VWS V14.01,2013-02-25 00:41:00,
2013-02-24 18:46:00,30.9,21.9,30.07,SE,133,2.0,2.0,69,0.00,,---,0.00,0.00,VWS V14.01,2013-02-25 00:46:00,
2013-02-24 18:51:00,30.8,21.9,30.07,SE,134,0.0,4.0,69,0.00,,---,0.00,0.00,VWS V14.01,2013-02-25 00:51:00,
2013-02-24 18:56:00,30.6,21.6,30.07,SE,134,0.0,1.0,69,0.00,,---,0.00,0.00,VWS V14.01,2013-02-25 00:56:00,
2013-02-24 19:01:00,30.4,21.5,30.07,SE,133,0.0,0.0,69,0.00,,---,0.00,0.00,VWS V14.01,2013-02-25 01:01:00,
2013-02-24 19:06:00,30.1,21.5,30.07,SE,134,0.0,0.0,70,0.00,,---,0.00,0.00,VWS V14.01,2013-02-25 01:06:00,
2013-02-24 19:12:00,29.8,21.2,30.07,SE,133,0.0,4.0,70,0.00,,---,0.00,0.00,VWS V14.01,2013-02-25 01:12:00,
2013-02-24 19:17:00,29.7,21.1,30.09,SE,134,0.0,4.0,70,0.00,,---,0.00,0.00,VWS V14.01,2013-02-25 01:17:00,
2013-02-24 19:22:00,29.5,20.9,30.09,SE,134,3.0,3.0,70,0.00,,---,0.00,0.00,VWS V14.01,2013-02-25 01:22:00,
2013-02-24 19:27:00,29.4,21.2,30.09,SE,136,3.0,3.0,71,0.00,,---,0.00,0.00,VWS V14.01,2013-02-25 01:27:00,
2013-02-24 19:32:00,29.2,21.0,30.09,SE,136,3.0,4.0,71,0.00,,---,0.00,0.00,VWS V14.01,2013-02-25 01:32:00,
2013-02-24 19:37:00,29.1,20.9,30.09,SE,136,3.0,4.0,71,0.00,,---,0.00,0.00,VWS V14.01,2013-02-25 01:37:00,
2013-02-24 19:42:00,29.0,20.8,30.09,SE,136,2.0,3.0,71,0.00,,---,0.00,0.00,VWS V14.01,2013-02-25 01:42:00,
2013-02-24 19:47:00,28.8,20.6,30.09,SE,136,0.0,3.0,71,0.00,,---,0.00,0.00,VWS V14.01,2013-02-25 01:47:00,
2013-02-24 19:52:00,28.7,20.5,30.09,SE,136,0.0,3.0,71,0.00,,---,0.00,0.00,VWS V14.01,2013-02-25 01:52:00,
2013-02-24 19:57:00,28.5,20.3,30.09,SE,136,1.0,3.0,71,0.00,,---,0.00,0.00,VWS V14.01,2013-02-25 01:57:00,
2013-02-24 20:02:00,28.4,20.2,30.09,SE,136,1.0,2.0,71,0.00,,---,0.00,0.00,VWS V14.01,2013-02-25 02:02:00,
2013-02-24 20:07:00,28.3,20.4,30.09,SE,136,0.0,3.0,72,0.00,,---,0.00,0.00,VWS V14.01,2013-02-25 02:07:00,
2013-02-24 20:12:00,28.1,20.2,30.09,SE,136,0.0,0.0,72,0.00,,---,0.00,0.00,VWS V14.01,2013-02-25 02:12:00,
2013-02-24 20:18:00,27.8,20.0,30.09,SE,136,0.0,0.0,72,0.00,,---,0.00,0.00,VWS V14.01,2013-02-25 02:18:00,
2013-02-24 20:23:00,27.6,20.1,30.09,SE,136,0.0,0.0,73,0.00,,---,0.00,0.00,VWS V14.01,2013-02-25 02:23:00,
2013-02-24 20:28:00,27.4,19.9,30.09,SE,136,0.0,0.0,73,0.00,,---,0.00,0.00,VWS V14.01,2013-02-25 02:28:00,
2013-02-24 20:33:00,27.2,20.0,30.09,SE,136,0.0,0.0,74,0.00,,---,0.00,0.00,VWS V14.01,2013-02-25 02:33:00,
2013-02-24 20:38:00,26.9,19.7,30.09,SE,136,0.0,0.0,74,0.00,,---,0.00,0.00,VWS V14.01,2013-02-25 02:38:00,
2013-02-24 20:43:00,26.8,20.0,30.09,SE,136,0.0,0.0,75,0.00,,---,0.00,0.00,VWS V14.01,2013-02-25 02:43:00,
2013-02-24 20:48:00,26.7,19.9,30.09,SE,136,0.0,0.0,75,0.00,,---,0.00,0.00,VWS V14.01,2013-02-25 02:48:00,
2013-02-24 20:53:00,26.5,19.7,30.09,SE,136,0.0,0.0,75,0.00,,---,0.00,0.00,VWS V14.01,2013-02-25 02:53:00,
2013-02-24 20:58:00,26.2,19.7,30.09,SE,136,0.0,0.0,76,0.00,,---,0.00,0.00,VWS V14.01,2013-02-25 02:58:00,
2013-02-24 21:03:00,26.0,19.5,30.09,SE,136,0.0,0.0,76,0.00,,---,0.00,0.00,VWS V14.01,2013-02-25 03:03:00,
2013-02-24 21:08:00,25.9,19.4,30.09,SE,136,0.0,0.0,76,0.00,,---,0.00,0.00,VWS V14.01,2013-02-25 03:08:00,
2013-02-24 21:14:00,25.8,19.6,30.09,SE,136,0.0,0.0,77,0.00,,---,0.00,0.00,VWS V14.01,2013-02-25 03:14:00,
2013-02-24 21:19:00,25.7,19.5,30.09,SE,136,0.0,0.0,77,0.00,,---,0.00,0.00,VWS V14.01,2013-02-25 03:19:00,
2013-02-24 21:24:00,25.8,19.6,30.09,SE,136,0.0,0.0,77,0.00,,---,0.00,0.00,VWS V14.01,2013-02-25 03:24:00,
2013-02-24 21:29:00,25.8,19.6,30.09,SE,136,0.0,0.0,77,0.00,,---,0.00,0.00,VWS V14.01,2013-02-25 03:29:00,
2013-02-24 21:34:00,25.8,19.9,30.09,SE,136,0.0,0.0,78,0.00,,---,0.00,0.00,VWS V14.01,2013-02-25 03:34:00,
2013-02-24 21:39:00,25.8,19.9,30.09,SE,136,0.0,0.0,78,0.00,,---,0.00,0.00,VWS V14.01,2013-02-25 03:39:00,
2013-02-24 21:44:00,25.8,19.9,30.09,SE,136,0.0,0.0,78,0.00,,---,0.00,0.00,VWS V14.01,2013-02-25 03:44:00,
2013-02-24 21:49:00,25.6,19.7,30.09,SE,136,0.0,0.0,78,0.00,,---,0.00,0.00,VWS V14.01,2013-02-25 03:49:00,
2013-02-24 21:54:00,25.2,19.3,30.09,SE,136,0.0,0.0,78,0.00,,---,0.00,0.00,VWS V14.01,2013-02-25 03:54:00,
2013-02-24 21:59:00,24.6,18.7,30.09,SE,136,0.0,0.0,78,0.00,,---,0.00,0.00,VWS V14.01,2013-02-25 03:59:00,
2013-02-24 22:04:00,24.0,18.1,30.10,SE,136,0.0,0.0,78,0.00,,---,0.00,0.00,VWS V14.01,2013-02-25 04:04:00,
2013-02-24 22:09:00,23.5,17.7,30.10,SE,136,0.0,0.0,78,0.00,,---,0.00,0.00,VWS V14.01,2013-02-25 04:09:00,
2013-02-24 22:14:00,23.2,17.7,30.10,SE,136,0.0,0.0,79,0.00,,---,0.00,0.00,VWS V14.01,2013-02-25 04:14:00,
2013-02-24 22:19:00,23.3,18.1,30.10,SE,136,0.0,0.0,80,0.00,,---,0.00,0.00,VWS V14.01,2013-02-25 04:19:00,
2013-02-24 22:24:00,23.2,18.2,30.10,SE,136,0.0,0.0,81,0.00,,---,0.00,0.00,VWS V14.01,2013-02-25 04:24:00,
2013-02-24 22:29:00,23.0,18.0,30.10,SE,136,0.0,0.0,81,0.00,,---,0.00,0.00,VWS V14.01,2013-02-25 04:29:00,
2013-02-24 22:35:00,22.9,18.2,30.10,SE,136,0.0,0.0,82,0.00,,---,0.00,0.00,VWS V14.01,2013-02-25 04:35:00,
2013-02-24 22:40:00,23.0,18.3,30.10,SE,136,0.0,0.0,82,0.00,,---,0.00,0.00,VWS V14.01,2013-02-25 04:40:00,
2013-02-24 22:45:00,23.3,18.9,30.10,SE,136,0.0,0.0,83,0.00,,---,0.00,0.00,VWS V14.01,2013-02-25 04:45:00,
2013-02-24 22:50:00,23.4,19.0,30.10,SE,136,0.0,0.0,83,0.00,,---,0.00,0.00,VWS V14.01,2013-02-25 04:50:00,
2013-02-24 22:55:00,23.5,19.1,30.10,SE,136,1.0,1.0,83,0.00,,---,0.00,0.00,VWS V14.01,2013-02-25 04:55:00,
2013-02-24 23:00:00,23.3,18.9,30.10,SE,136,0.0,0.0,83,0.00,,---,0.00,0.00,VWS V14.01,2013-02-25 05:00:00,
2013-02-24 23:01:00,23.3,18.9,30.10,SE,136,0.0,0.0,83,0.00,,---,0.00,0.00,VWS V14.01,2013-02-25 05:01:00,
2013-02-24 23:06:00,22.9,18.2,30.10,SE,136,0.0,0.0,82,0.00,,---,0.00,0.00,VWS V14.01,2013-02-25 05:06:00,
2013-02-24 23:11:00,22.6,18.2,30.10,SE,136,0.0,0.0,83,0.00,,---,0.00,0.00,VWS V14.01,2013-02-25 05:11:00,
2013-02-24 23:16:00,22.4,18.0,30.10,SE,136,0.0,0.0,83,0.00,,---,0.00,0.00,VWS V14.01,2013-02-25 05:16:00,
2013-02-24 23:21:00,22.2,17.8,30.10,SE,136,0.0,0.0,83,0.00,,---,0.00,0.00,VWS V14.01,2013-02-25 05:21:00,
2013-02-24 23:26:00,22.4,18.3,30.10,SE,136,0.0,0.0,84,0.00,,---,0.00,0.00,VWS V14.01,2013-02-25 05:26:00,
2013-02-24 23:31:00,22.6,18.5,30.11,SE,136,0.0,0.0,84,0.00,,---,0.00,0.00,VWS V14.01,2013-02-25 05:31:00,
2013-02-24 23:36:00,22.7,18.6,30.11,SE,136,0.0,0.0,84,0.00,,---,0.00,0.00,VWS V14.01,2013-02-25 05:36:00,
2013-02-24 23:41:00,22.8,18.7,30.11,SE,136,0.0,0.0,84,0.00,,---,0.00,0.00,VWS V14.01,2013-02-25 05:41:00,
2013-02-24 23:46:00,22.8,18.7,30.10,SE,136,1.0,1.0,84,0.00,,---,0.00,0.00,VWS V14.01,2013-02-25 05:46:00,
2013-02-24 23:51:00,22.9,18.8,30.10,SE,136,1.0,2.0,84,0.00,,---,0.00,0.00,VWS V14.01,2013-02-25 05:51:00,
2013-02-24 23:56:00,23.0,18.9,30.10,SE,136,0.0,1.0,84,0.00,,---,0.00,0.00,VWS V14.01,2013-02-25 05:56:00,